Bahama Mama — 9HA2263 — position and weather

sailwx.info

Track history (hours):
 
Tides and Currents Weather Stations Pressure Air Temp Water Temp Dewpoint Dewpoint Depression Visibility Wind Speed Wind Dir Waves Ship Positions

Bahama Mama

Last reported at 2018-Apr-04 00:15 UTC. Time now 2018-Apr-24 08:31 UTC.
Position N 37°02' W 001°16'.
Warning: this ship's position is 20 days out of date.

Length 155 m; draft 5.5 m.

Type: Ship. MMSI: 248218000.

Date/timePositionNaut miles runAvg speedWind from/ knotsBaromVisibWave heightAir tempDewpointWater temp
2018-Apr-04 00:15N 37°02' W 001°16'1016.5
2018-Apr-03 23:39N 37°07' W 001°06'417.7
2018-Apr-03 23:25N 37°11' W 001°03'817.4
2018-Apr-03 22:56N 37°17' W 000°57'817.5
2018-Apr-03 22:30N 37°23' W 000°50'1617.1
2018-Apr-03 21:35N 37°33' W 000°35'117.8
2018-Apr-03 21:30N 37°34' W 000°34'917.6
2018-Apr-03 21:01N 37°41' W 000°28'917.6
2018-Apr-03 20:29N 37°49' W 000°22'918.6
2018-Apr-03 20:00N 37°57' W 000°15'9110.1
2018-Apr-03 11:04N 38°48' E 001°19'220.5
2018-Apr-03 10:58N 38°48' E 001°22'712.2
2018-Apr-03 10:22N 38°54' E 001°27'0 0.0
2018-Apr-03 09:58N 38°54' E 001°27'0 0.3
2018-Apr-03 09:30N 38°54' E 001°27'714.3
2018-Apr-03 09:00N 38°57' E 001°35'4221.2
2018-Apr-03 07:01N 39°20' E 002°20'021.5
2018-Apr-03 07:00N 39°20' E 002°21'1121.5
2018-Apr-03 06:30N 39°26' E 002°32'816.5
2018-Apr-03 06:00N 39°33' E 002°38'0 0.8
2018-Apr-03 05:30N 39°33' E 002°38'0 0.0
2018-Apr-03 05:01N 39°33' E 002°38'0 0.0
2018-Apr-03 04:30N 39°33' E 002°38'0 0.0
2018-Apr-03 04:00N 39°33' E 002°38'0 0.0
2018-Apr-03 03:30N 39°33' E 002°38'0 0.0
2018-Apr-03 03:00N 39°33' E 002°38'0 0.0
2018-Apr-03 02:30N 39°33' E 002°38'0 0.0
2018-Apr-03 02:00N 39°33' E 002°38'0 0.0
2018-Apr-03 01:30N 39°33' E 002°38'0 0.0
2018-Apr-03 01:00N 39°33' E 002°38'0 0.0
2018-Apr-03 00:30N 39°33' E 002°38'0 0.0
2018-Apr-03 00:00N 39°33' E 002°38'1 1.0
2018-Apr-02 23:15N 39°33' E 002°39'417.9
2018-Apr-02 23:00N 39°29' E 002°36'1020.7
2018-Apr-02 22:30N 39°22' E 002°26'2321.3
2018-Apr-02 21:25N 39°09' E 002°01'1721.1
2018-Apr-02 20:36N 39°00' E 001°42'220.7
2018-Apr-02 20:30N 38°59' E 001°40'1020.5
2018-Apr-02 20:00N 38°54' E 001°29'1 2.7
2018-Apr-02 19:29N 38°54' E 001°27'0 0.9
2018-Apr-02 18:59N 38°54' E 001°27'814.6
2018-Apr-02 18:27N 38°47' E 001°21'2 0.3
2018-Apr-02 10:51N 38°48' E 001°24'710.0
2018-Apr-02 10:11N 38°54' E 001°27'1 0.7
2018-Apr-02 09:14N 38°54' E 001°28'521.2
2018-Apr-02 09:00N 38°56' E 001°33'4121.6
2018-Apr-02 07:05N 39°18' E 002°18'222.3
2018-Apr-02 07:01N 39°19' E 002°20'1322.1
2018-Apr-02 06:26N 39°27' E 002°33'717.4
2018-Apr-02 06:00N 39°33' E 002°38'0 0.8
2018-Apr-02 05:30N 39°33' E 002°38'0 0.0
2018-Apr-02 05:00N 39°33' E 002°38'0 0.0
2018-Apr-02 04:30N 39°33' E 002°38'0 0.0
2018-Apr-02 04:00N 39°33' E 002°38'0 0.0
2018-Apr-02 03:30N 39°33' E 002°38'0 0.0
2018-Apr-02 03:00N 39°33' E 002°38'0 0.0
2018-Apr-02 02:30N 39°33' E 002°38'0 0.0
2018-Apr-02 02:00N 39°33' E 002°38'0 0.0
2018-Apr-02 01:30N 39°33' E 002°38'0 0.0
2018-Apr-02 01:00N 39°33' E 002°38'0 0.0
2018-Apr-02 00:30N 39°33' E 002°38'0 0.0
2018-Apr-02 00:00N 39°33' E 002°38'0 0.0
2018-Apr-01 23:30N 39°33' E 002°38'1 1.2
2018-Apr-01 23:00N 39°33' E 002°38'918.3
2018-Apr-01 22:30N 39°25' E 002°33'1121.6
2018-Apr-01 22:00N 39°19' E 002°21'1821.8
2018-Apr-01 21:11N 39°09' E 002°02'422.1
2018-Apr-01 20:59N 39°07' E 001°57'1522.0
2018-Apr-01 20:19N 38°60' E 001°41'721.9
2018-Apr-01 20:00N 38°56' E 001°33'5 9.8
2018-Apr-01 19:30N 38°54' E 001°27'0 0.0
2018-Apr-01 19:00N 38°54' E 001°27'611.1
2018-Apr-01 18:30N 38°49' E 001°26'1020.0
2018-Apr-01 18:00N 38°48' E 001°13'1521.9
2018-Apr-01 17:19N 38°48' E 000°54'722.0
2018-Apr-01 17:00N 38°49' E 000°45'1121.8
2018-Apr-01 16:30N 38°50' E 000°31'35 6.7
2018-Apr-01 11:13N 38°48' E 001°17'620.0
2018-Apr-01 10:56N 38°48' E 001°24'713.0
2018-Apr-01 10:25N 38°54' E 001°27'0 0.0
2018-Apr-01 10:00N 38°54' E 001°27'1 1.1
2018-Apr-01 09:22N 38°54' E 001°28'720.4
2018-Apr-01 09:00N 38°57' E 001°36'3721.6
2018-Apr-01 07:16N 39°17' E 002°17'621.7
2018-Apr-01 07:00N 39°20' E 002°23'1121.5
2018-Apr-01 06:30N 39°27' E 002°34'713.5
2018-Apr-01 06:00N 39°33' E 002°38'0 0.1
2018-Apr-01 05:30N 39°33' E 002°38'0 0.0
2018-Apr-01 05:00N 39°33' E 002°38'0 0.0
2018-Apr-01 04:30N 39°33' E 002°38'0 0.0
2018-Apr-01 04:00N 39°33' E 002°38'0 0.0
2018-Apr-01 03:30N 39°33' E 002°38'0 0.0
2018-Apr-01 03:00N 39°33' E 002°38'0 0.0
2018-Apr-01 02:30N 39°33' E 002°38'0 0.0
2018-Apr-01 02:00N 39°33' E 002°38'0 0.0
2018-Apr-01 01:30N 39°33' E 002°38'0 0.0
2018-Apr-01 01:00N 39°33' E 002°38'0 0.0
2018-Apr-01 00:30N 39°33' E 002°38'611.4
2018-Apr-01 00:00N 39°28' E 002°34'1121.3
2018-Mar-31 23:30N 39°21' E 002°25'1121.5
2018-Mar-31 23:00N 39°14' E 002°13'3121.4
2018-Mar-31 21:33N 38°59' E 001°39'121.4
2018-Mar-31 21:30N 38°58' E 001°38'1018.8
2018-Mar-31 21:00N 38°54' E 001°27'0 0.0
2018-Mar-31 20:25N 38°54' E 001°27'12 1.3
2018-Mar-31 11:38N 39°00' E 001°39'320.9
2018-Mar-31 11:30N 38°58' E 001°37'917.3
2018-Mar-31 11:00N 38°54' E 001°27'0 0.3
2018-Mar-31 10:28N 38°54' E 001°27'1 1.8
2018-Mar-31 09:59N 38°54' E 001°28'816.7
2018-Mar-31 09:30N 38°58' E 001°37'3918.4
2018-Mar-31 07:21N 39°20' E 002°19'617.3
2018-Mar-31 07:00N 39°23' E 002°26'917.5
2018-Mar-31 06:30N 39°28' E 002°35'510.7
2018-Mar-31 06:00N 39°33' E 002°38'0 0.0
2018-Mar-31 05:30N 39°33' E 002°38'0 0.0
2018-Mar-31 05:00N 39°33' E 002°38'0 0.0
2018-Mar-31 04:30N 39°33' E 002°38'0 0.0
2018-Mar-31 04:00N 39°33' E 002°38'0 0.0
2018-Mar-31 03:30N 39°33' E 002°38'0 0.0
2018-Mar-31 03:00N 39°33' E 002°38'0 0.0
2018-Mar-31 02:30N 39°33' E 002°38'0 0.0
2018-Mar-31 02:00N 39°33' E 002°38'0 0.0
2018-Mar-31 01:29N 39°33' E 002°38'0 0.0
2018-Mar-31 01:00N 39°33' E 002°38'0 0.0
2018-Mar-31 00:30N 39°33' E 002°38'0 0.0
2018-Mar-31 00:00N 39°33' E 002°38'0 0.0
2018-Mar-30 23:30N 39°33' E 002°38'3 5.3
2018-Mar-30 23:00N 39°31' E 002°37'1121.1
2018-Mar-30 22:30N 39°22' E 002°28'1121.4
2018-Mar-30 22:00N 39°16' E 002°17'3121.7
2018-Mar-30 20:35N 39°00' E 001°43'121.6
2018-Mar-30 20:30N 38°59' E 001°41'1121.5
2018-Mar-30 20:00N 38°54' E 001°29'2 2.8
2018-Mar-30 19:25N 38°54' E 001°27'2 3.3
2018-Mar-30 18:58N 38°53' E 001°27'715.4
2018-Mar-30 18:30N 38°47' E 001°21'11 1.5
2018-Mar-30 11:28N 38°49' E 001°08'1021.5
2018-Mar-30 11:00N 38°48' E 001°21'814.1
2018-Mar-30 10:26N 38°54' E 001°27'0 0.1
2018-Mar-30 09:54N 38°54' E 001°27'1 1.7
2018-Mar-30 09:22N 38°54' E 001°28'820.9
2018-Mar-30 09:00N 38°58' E 001°37'3720.9
2018-Mar-30 07:14N 39°18' E 002°16'520.9
2018-Mar-30 07:00N 39°21' E 002°22'1021.0
2018-Mar-30 06:30N 39°26' E 002°33'816.1
2018-Mar-30 06:00N 39°33' E 002°38'0 0.7
2018-Mar-30 05:30N 39°33' E 002°38'0 0.0
2018-Mar-30 05:00N 39°33' E 002°38'0 0.0
2018-Mar-30 04:30N 39°33' E 002°38'0 0.0
2018-Mar-30 04:00N 39°33' E 002°38'0 0.0
2018-Mar-30 03:30N 39°33' E 002°38'0 0.0
2018-Mar-30 03:00N 39°33' E 002°38'0 0.0
2018-Mar-30 02:30N 39°33' E 002°38'0 0.0
2018-Mar-30 02:00N 39°33' E 002°38'0 0.0
2018-Mar-30 01:30N 39°33' E 002°38'0 0.0
2018-Mar-30 01:00N 39°33' E 002°38'0 0.0
2018-Mar-30 00:30N 39°33' E 002°38'0 0.0
2018-Mar-30 00:00N 39°33' E 002°38'0 0.0
2018-Mar-29 23:30N 39°33' E 002°38'0 1.0
2018-Mar-29 22:59N 39°33' E 002°38'918.4
2018-Mar-29 22:30N 39°26' E 002°33'1121.9
2018-Mar-29 22:00N 39°19' E 002°21'3822.3
2018-Mar-29 20:18N 38°59' E 001°40'722.2
2018-Mar-29 20:00N 38°56' E 001°32'4 8.5
2018-Mar-29 19:29N 38°54' E 001°27'0 0.5
2018-Mar-29 18:59N 38°54' E 001°27'714.9
2018-Mar-29 18:30N 38°48' E 001°23'1121.4
2018-Mar-29 17:58N 38°47' E 001°08'2 0.3
2018-Mar-29 11:55N 38°49' E 001°06'1019.6
2018-Mar-29 11:26N 38°48' E 001°18'714.1
2018-Mar-29 10:55N 38°50' E 001°27'4 4.7
2018-Mar-29 10:02N 38°54' E 001°27'0 0.6
2018-Mar-29 09:46N 38°54' E 001°27'3 9.5
2018-Mar-29 09:27N 38°55' E 001°31'4521.4
2018-Mar-29 07:20N 39°19' E 002°20'721.5
2018-Mar-29 07:00N 39°24' E 002°27'1121.2
2018-Mar-29 06:30N 39°31' E 002°37'2 5.0
2018-Mar-29 06:00N 39°33' E 002°38'0 0.0
2018-Mar-29 05:30N 39°33' E 002°38'0 0.0
2018-Mar-29 05:00N 39°33' E 002°38'0 0.0
2018-Mar-29 04:30N 39°33' E 002°38'0 0.0
2018-Mar-29 04:00N 39°33' E 002°38'0 0.0
2018-Mar-29 03:30N 39°33' E 002°38'0 0.0
2018-Mar-29 03:00N 39°33' E 002°38'0 0.0
2018-Mar-29 02:30N 39°33' E 002°38'0 0.0
2018-Mar-29 02:00N 39°33' E 002°38'0 0.0
2018-Mar-29 01:30N 39°33' E 002°38'0 0.0
2018-Mar-29 01:00N 39°33' E 002°38'0 0.0
2018-Mar-29 00:30N 39°33' E 002°38'0 0.0
2018-Mar-29 00:00N 39°33' E 002°38'0 0.0
2018-Mar-28 23:30N 39°33' E 002°38'5 9.8
2018-Mar-28 23:00N 39°29' E 002°35'1121.2
2018-Mar-28 22:30N 39°21' E 002°25'4122.1
2018-Mar-28 20:39N 38°59' E 001°41'321.8
2018-Mar-28 20:30N 38°58' E 001°37'917.6
2018-Mar-28 20:00N 38°54' E 001°27'0 0.6
2018-Mar-28 19:27N 38°54' E 001°27'2 2.9
2018-Mar-28 18:54N 38°53' E 001°27'716.8
2018-Mar-28 18:29N 38°47' E 001°21'5 0.7
2018-Mar-28 11:35N 38°48' E 001°15'221.7
2018-Mar-28 11:30N 38°48' E 001°18'815.9
2018-Mar-28 11:00N 38°52' E 001°27'2 4.9
2018-Mar-28 10:30N 38°54' E 001°27'0 0.0
2018-Mar-28 09:56N 38°54' E 001°27'1 2.0
2018-Mar-28 09:30N 38°54' E 001°28'1121.2
2018-Mar-28 09:00N 38°59' E 001°40'2421.5
2018-Mar-28 07:54N 39°13' E 002°05'1221.6
2018-Mar-28 07:20N 39°19' E 002°18'721.7
2018-Mar-28 06:59N 39°23' E 002°26'1021.3
2018-Mar-28 06:30N 39°30' E 002°36'3 6.1
2018-Mar-28 06:00N 39°33' E 002°38'0 0.0
2018-Mar-28 05:30N 39°33' E 002°38'0 0.0
2018-Mar-28 05:00N 39°33' E 002°38'0 0.0
2018-Mar-28 04:30N 39°33' E 002°38'0 0.0
2018-Mar-28 04:01N 39°33' E 002°38'0 0.0
2018-Mar-28 03:30N 39°33' E 002°38'0 0.0
2018-Mar-28 03:00N 39°33' E 002°38'0 0.0
2018-Mar-28 02:30N 39°33' E 002°38'0 0.0
2018-Mar-28 02:00N 39°33' E 002°38'0 0.0
2018-Mar-28 01:31N 39°33' E 002°38'0 0.0
2018-Mar-28 01:00N 39°33' E 002°38'0 0.0
2018-Mar-28 00:30N 39°33' E 002°38'0 0.0
2018-Mar-28 00:00N 39°33' E 002°38'0 0.1
2018-Mar-27 23:30N 39°33' E 002°38'713.6
2018-Mar-27 23:00N 39°27' E 002°34'1121.6
2018-Mar-27 22:30N 39°20' E 002°23'3922.1
2018-Mar-27 20:43N 38°59' E 001°40'522.0
2018-Mar-27 20:29N 38°57' E 001°34'611.8
2018-Mar-27 19:58N 38°54' E 001°27'0 0.0
2018-Mar-27 19:29N 38°54' E 001°27'611.7
2018-Mar-27 19:00N 38°49' E 001°26'12 1.6
2018-Mar-27 11:31N 38°49' E 001°10'121.3
2018-Mar-27 11:29N 38°49' E 001°11'1217.7
2018-Mar-27 10:48N 38°51' E 001°27'310.7
2018-Mar-27 10:30N 38°54' E 001°27'0 0.0
2018-Mar-27 09:54N 38°54' E 001°27'1 1.3
2018-Mar-27 09:30N 38°54' E 001°27'917.1
2018-Mar-27 09:00N 38°58' E 001°37'3721.1
2018-Mar-27 07:14N 39°18' E 002°17'521.5
2018-Mar-27 07:00N 39°21' E 002°23'1021.4
2018-Mar-27 06:30N 39°27' E 002°34'714.6
2018-Mar-27 06:01N 39°33' E 002°38'0 0.7
2018-Mar-27 05:30N 39°33' E 002°38'0 0.0
2018-Mar-27 05:00N 39°33' E 002°38'0 0.0
2018-Mar-27 04:31N 39°33' E 002°38'0 0.0
2018-Mar-27 04:00N 39°33' E 002°38'0 0.0
2018-Mar-27 03:30N 39°33' E 002°38'0 0.0
2018-Mar-27 03:00N 39°33' E 002°38'0 0.0
2018-Mar-27 02:30N 39°33' E 002°38'0 0.0
2018-Mar-27 02:01N 39°33' E 002°38'0 0.0
2018-Mar-27 01:30N 39°33' E 002°38'0 0.0
2018-Mar-27 01:00N 39°33' E 002°38'0 0.0
2018-Mar-27 00:31N 39°33' E 002°38'0 0.0
2018-Mar-27 00:00N 39°33' E 002°38'0 0.0
2018-Mar-26 23:30N 39°33' E 002°38'1 1.2
2018-Mar-26 23:00N 39°33' E 002°38'918.6
2018-Mar-26 22:30N 39°25' E 002°33'1122.2
2018-Mar-26 22:00N 39°19' E 002°20'3222.3
2018-Mar-26 20:34N 39°02' E 001°46'121.9
2018-Mar-26 20:30N 39°01' E 001°44'1121.3
2018-Mar-26 20:00N 38°56' E 001°32'4 8.2
2018-Mar-26 19:28N 38°54' E 001°27'0 0.2
2018-Mar-26 18:55N 38°54' E 001°27'612.9
2018-Mar-26 18:27N 38°48' E 001°25'11 1.6
2018-Mar-26 11:22N 38°49' E 001°11'821.6
2018-Mar-26 11:00N 38°48' E 001°21'714.0
2018-Mar-26 10:29N 38°54' E 001°27'0 0.6
2018-Mar-26 09:57N 38°54' E 001°27'1 1.0
2018-Mar-26 09:24N 38°54' E 001°27'818.5
2018-Mar-26 09:00N 38°57' E 001°36'4021.6
2018-Mar-26 07:08N 39°19' E 002°19'321.8
2018-Mar-26 06:59N 39°21' E 002°23'1021.4
2018-Mar-26 06:30N 39°27' E 002°34'714.6
2018-Mar-26 06:00N 39°33' E 002°38'0 0.2
2018-Mar-26 05:30N 39°33' E 002°38'0 0.0
2018-Mar-26 05:01N 39°33' E 002°38'0 0.0
2018-Mar-26 04:31N 39°33' E 002°38'0 0.0
2018-Mar-26 04:00N 39°33' E 002°38'0 0.0
2018-Mar-26 03:30N 39°33' E 002°38'0 0.0
2018-Mar-26 03:00N 39°33' E 002°38'0 0.0
2018-Mar-26 02:30N 39°33' E 002°38'0 0.0
2018-Mar-26 02:01N 39°33' E 002°38'0 0.0
2018-Mar-26 01:30N 39°33' E 002°38'3 6.8
2018-Mar-26 01:00N 39°30' E 002°36'1121.5
2018-Mar-26 00:31N 39°22' E 002°27'4021.7
2018-Mar-25 22:39N 39°00' E 001°43'322.0
2018-Mar-25 22:30N 38°59' E 001°40'1118.9
2018-Mar-25 21:55N 38°54' E 001°27'0 0.3
2018-Mar-25 21:30N 38°54' E 001°27'610.8
2018-Mar-25 20:57N 38°49' E 001°25'11 1.7
2018-Mar-25 14:07N 38°50' E 001°11'421.5
2018-Mar-25 13:55N 38°49' E 001°16'818.3
2018-Mar-25 13:30N 38°49' E 001°26'611.2
2018-Mar-25 13:00N 38°54' E 001°27'1 1.7
2018-Mar-25 12:23N 38°54' E 001°28'821.4
2018-Mar-25 12:00N 38°58' E 001°37'4120.8
2018-Mar-25 10:03N 39°23' E 002°19'121.4
2018-Mar-25 09:59N 39°23' E 002°20'1021.0
2018-Mar-25 09:30N 39°26' E 002°33'816.0
2018-Mar-25 09:00N 39°33' E 002°38'0 0.5
2018-Mar-25 08:30N 39°33' E 002°37'1 1.9
2018-Mar-25 08:00N 39°32' E 002°38'1019.2
2018-Mar-25 07:30N 39°26' E 002°30'5018.5
2018-Mar-25 04:47N 38°54' E 001°39'620.3
2018-Mar-25 04:30N 38°54' E 001°31'3 6.5
2018-Mar-25 03:58N 38°54' E 001°27'1 1.1
2018-Mar-25 03:27N 38°54' E 001°27'818.6
2018-Mar-25 03:00N 38°58' E 001°37'1217.7
2018-Mar-25 02:20N 39°10' E 001°34'  
Track history (hours):
 
Tides and Currents Weather Stations Pressure Air Temp Water Temp Dewpoint Dewpoint Depression Visibility Wind Speed Wind Dir Waves Ship Positions

Bahama Mama

Last reported at 2018-Apr-04 00:15 UTC. Time now 2018-Apr-24 08:31 UTC.
Position N 37°02' W 001°16'.
Warning: this ship's position is 20 days out of date.

Length 155 m; draft 5.5 m.

Type: Ship. MMSI: 248218000.

Date/timePositionNaut miles runAvg speedWind from/ knotsBaromVisibWave heightAir tempDewpointWater temp
2018-Apr-04 00:15N 37°02' W 001°16'1016.5
2018-Apr-03 23:39N 37°07' W 001°06'417.7
2018-Apr-03 23:25N 37°11' W 001°03'817.4
2018-Apr-03 22:56N 37°17' W 000°57'817.5
2018-Apr-03 22:30N 37°23' W 000°50'1617.1
2018-Apr-03 21:35N 37°33' W 000°35'117.8
2018-Apr-03 21:30N 37°34' W 000°34'917.6
2018-Apr-03 21:01N 37°41' W 000°28'917.6
2018-Apr-03 20:29N 37°49' W 000°22'918.6
2018-Apr-03 20:00N 37°57' W 000°15'9110.1
2018-Apr-03 11:04N 38°48' E 001°19'220.5
2018-Apr-03 10:58N 38°48' E 001°22'712.2
2018-Apr-03 10:22N 38°54' E 001°27'0 0.0
2018-Apr-03 09:58N 38°54' E 001°27'0 0.3
2018-Apr-03 09:30N 38°54' E 001°27'714.3
2018-Apr-03 09:00N 38°57' E 001°35'4221.2
2018-Apr-03 07:01N 39°20' E 002°20'021.5
2018-Apr-03 07:00N 39°20' E 002°21'1121.5
2018-Apr-03 06:30N 39°26' E 002°32'816.5
2018-Apr-03 06:00N 39°33' E 002°38'0 0.8
2018-Apr-03 05:30N 39°33' E 002°38'0 0.0
2018-Apr-03 05:01N 39°33' E 002°38'0 0.0
2018-Apr-03 04:30N 39°33' E 002°38'0 0.0
2018-Apr-03 04:00N 39°33' E 002°38'0 0.0
2018-Apr-03 03:30N 39°33' E 002°38'0 0.0
2018-Apr-03 03:00N 39°33' E 002°38'0 0.0
2018-Apr-03 02:30N 39°33' E 002°38'0 0.0
2018-Apr-03 02:00N 39°33' E 002°38'0 0.0
2018-Apr-03 01:30N 39°33' E 002°38'0 0.0
2018-Apr-03 01:00N 39°33' E 002°38'0 0.0
2018-Apr-03 00:30N 39°33' E 002°38'0 0.0
2018-Apr-03 00:00N 39°33' E 002°38'1 1.0
2018-Apr-02 23:15N 39°33' E 002°39'417.9
2018-Apr-02 23:00N 39°29' E 002°36'1020.7
2018-Apr-02 22:30N 39°22' E 002°26'2321.3
2018-Apr-02 21:25N 39°09' E 002°01'1721.1
2018-Apr-02 20:36N 39°00' E 001°42'220.7
2018-Apr-02 20:30N 38°59' E 001°40'1020.5
2018-Apr-02 20:00N 38°54' E 001°29'1 2.7
2018-Apr-02 19:29N 38°54' E 001°27'0 0.9
2018-Apr-02 18:59N 38°54' E 001°27'814.6
2018-Apr-02 18:27N 38°47' E 001°21'2 0.3
2018-Apr-02 10:51N 38°48' E 001°24'710.0
2018-Apr-02 10:11N 38°54' E 001°27'1 0.7
2018-Apr-02 09:14N 38°54' E 001°28'521.2
2018-Apr-02 09:00N 38°56' E 001°33'4121.6
2018-Apr-02 07:05N 39°18' E 002°18'222.3
2018-Apr-02 07:01N 39°19' E 002°20'1322.1
2018-Apr-02 06:26N 39°27' E 002°33'717.4
2018-Apr-02 06:00N 39°33' E 002°38'0 0.8
2018-Apr-02 05:30N 39°33' E 002°38'0 0.0
2018-Apr-02 05:00N 39°33' E 002°38'0 0.0
2018-Apr-02 04:30N 39°33' E 002°38'0 0.0
2018-Apr-02 04:00N 39°33' E 002°38'0 0.0
2018-Apr-02 03:30N 39°33' E 002°38'0 0.0
2018-Apr-02 03:00N 39°33' E 002°38'0 0.0
2018-Apr-02 02:30N 39°33' E 002°38'0 0.0
2018-Apr-02 02:00N 39°33' E 002°38'0 0.0
2018-Apr-02 01:30N 39°33' E 002°38'0 0.0
2018-Apr-02 01:00N 39°33' E 002°38'0 0.0
2018-Apr-02 00:30N 39°33' E 002°38'0 0.0
2018-Apr-02 00:00N 39°33' E 002°38'0 0.0
2018-Apr-01 23:30N 39°33' E 002°38'1 1.2
2018-Apr-01 23:00N 39°33' E 002°38'918.3
2018-Apr-01 22:30N 39°25' E 002°33'1121.6
2018-Apr-01 22:00N 39°19' E 002°21'1821.8
2018-Apr-01 21:11N 39°09' E 002°02'422.1
2018-Apr-01 20:59N 39°07' E 001°57'1522.0
2018-Apr-01 20:19N 38°60' E 001°41'721.9
2018-Apr-01 20:00N 38°56' E 001°33'5 9.8
2018-Apr-01 19:30N 38°54' E 001°27'0 0.0
2018-Apr-01 19:00N 38°54' E 001°27'611.1
2018-Apr-01 18:30N 38°49' E 001°26'1020.0
2018-Apr-01 18:00N 38°48' E 001°13'1521.9
2018-Apr-01 17:19N 38°48' E 000°54'722.0
2018-Apr-01 17:00N 38°49' E 000°45'1121.8
2018-Apr-01 16:30N 38°50' E 000°31'35 6.7
2018-Apr-01 11:13N 38°48' E 001°17'620.0
2018-Apr-01 10:56N 38°48' E 001°24'713.0
2018-Apr-01 10:25N 38°54' E 001°27'0 0.0
2018-Apr-01 10:00N 38°54' E 001°27'1 1.1
2018-Apr-01 09:22N 38°54' E 001°28'720.4
2018-Apr-01 09:00N 38°57' E 001°36'3721.6
2018-Apr-01 07:16N 39°17' E 002°17'621.7
2018-Apr-01 07:00N 39°20' E 002°23'1121.5
2018-Apr-01 06:30N 39°27' E 002°34'713.5
2018-Apr-01 06:00N 39°33' E 002°38'0 0.1
2018-Apr-01 05:30N 39°33' E 002°38'0 0.0
2018-Apr-01 05:00N 39°33' E 002°38'0 0.0
2018-Apr-01 04:30N 39°33' E 002°38'0 0.0
2018-Apr-01 04:00N 39°33' E 002°38'0 0.0
2018-Apr-01 03:30N 39°33' E 002°38'0 0.0
2018-Apr-01 03:00N 39°33' E 002°38'0 0.0
2018-Apr-01 02:30N 39°33' E 002°38'0 0.0
2018-Apr-01 02:00N 39°33' E 002°38'0 0.0
2018-Apr-01 01:30N 39°33' E 002°38'0 0.0
2018-Apr-01 01:00N 39°33' E 002°38'0 0.0
2018-Apr-01 00:30N 39°33' E 002°38'611.4
2018-Apr-01 00:00N 39°28' E 002°34'1121.3
2018-Mar-31 23:30N 39°21' E 002°25'1121.5
2018-Mar-31 23:00N 39°14' E 002°13'3121.4
2018-Mar-31 21:33N 38°59' E 001°39'121.4
2018-Mar-31 21:30N 38°58' E 001°38'1018.8
2018-Mar-31 21:00N 38°54' E 001°27'0 0.0
2018-Mar-31 20:25N 38°54' E 001°27'12 1.3
2018-Mar-31 11:38N 39°00' E 001°39'320.9
2018-Mar-31 11:30N 38°58' E 001°37'917.3
2018-Mar-31 11:00N 38°54' E 001°27'0 0.3
2018-Mar-31 10:28N 38°54' E 001°27'1 1.8
2018-Mar-31 09:59N 38°54' E 001°28'816.7
2018-Mar-31 09:30N 38°58' E 001°37'3918.4
2018-Mar-31 07:21N 39°20' E 002°19'617.3
2018-Mar-31 07:00N 39°23' E 002°26'917.5
2018-Mar-31 06:30N 39°28' E 002°35'510.7
2018-Mar-31 06:00N 39°33' E 002°38'0 0.0
2018-Mar-31 05:30N 39°33' E 002°38'0 0.0
2018-Mar-31 05:00N 39°33' E 002°38'0 0.0
2018-Mar-31 04:30N 39°33' E 002°38'0 0.0
2018-Mar-31 04:00N 39°33' E 002°38'0 0.0
2018-Mar-31 03:30N 39°33' E 002°38'0 0.0
2018-Mar-31 03:00N 39°33' E 002°38'0 0.0
2018-Mar-31 02:30N 39°33' E 002°38'0 0.0
2018-Mar-31 02:00N 39°33' E 002°38'0 0.0
2018-Mar-31 01:29N 39°33' E 002°38'0 0.0
2018-Mar-31 01:00N 39°33' E 002°38'0 0.0
2018-Mar-31 00:30N 39°33' E 002°38'0 0.0
2018-Mar-31 00:00N 39°33' E 002°38'0 0.0
2018-Mar-30 23:30N 39°33' E 002°38'3 5.3
2018-Mar-30 23:00N 39°31' E 002°37'1121.1
2018-Mar-30 22:30N 39°22' E 002°28'1121.4
2018-Mar-30 22:00N 39°16' E 002°17'3121.7
2018-Mar-30 20:35N 39°00' E 001°43'121.6
2018-Mar-30 20:30N 38°59' E 001°41'1121.5
2018-Mar-30 20:00N 38°54' E 001°29'2 2.8
2018-Mar-30 19:25N 38°54' E 001°27'2 3.3
2018-Mar-30 18:58N 38°53' E 001°27'715.4
2018-Mar-30 18:30N 38°47' E 001°21'11 1.5
2018-Mar-30 11:28N 38°49' E 001°08'1021.5
2018-Mar-30 11:00N 38°48' E 001°21'814.1
2018-Mar-30 10:26N 38°54' E 001°27'0 0.1
2018-Mar-30 09:54N 38°54' E 001°27'1 1.7
2018-Mar-30 09:22N 38°54' E 001°28'820.9
2018-Mar-30 09:00N 38°58' E 001°37'3720.9
2018-Mar-30 07:14N 39°18' E 002°16'520.9
2018-Mar-30 07:00N 39°21' E 002°22'1021.0
2018-Mar-30 06:30N 39°26' E 002°33'816.1
2018-Mar-30 06:00N 39°33' E 002°38'0 0.7
2018-Mar-30 05:30N 39°33' E 002°38'0 0.0
2018-Mar-30 05:00N 39°33' E 002°38'0 0.0
2018-Mar-30 04:30N 39°33' E 002°38'0 0.0
2018-Mar-30 04:00N 39°33' E 002°38'0 0.0
2018-Mar-30 03:30N 39°33' E 002°38'0 0.0
2018-Mar-30 03:00N 39°33' E 002°38'0 0.0
2018-Mar-30 02:30N 39°33' E 002°38'0 0.0
2018-Mar-30 02:00N 39°33' E 002°38'0 0.0
2018-Mar-30 01:30N 39°33' E 002°38'0 0.0
2018-Mar-30 01:00N 39°33' E 002°38'0 0.0
2018-Mar-30 00:30N 39°33' E 002°38'0 0.0
2018-Mar-30 00:00N 39°33' E 002°38'0 0.0
2018-Mar-29 23:30N 39°33' E 002°38'0 1.0
2018-Mar-29 22:59N 39°33' E 002°38'918.4
2018-Mar-29 22:30N 39°26' E 002°33'1121.9
2018-Mar-29 22:00N 39°19' E 002°21'3822.3
2018-Mar-29 20:18N 38°59' E 001°40'722.2
2018-Mar-29 20:00N 38°56' E 001°32'4 8.5
2018-Mar-29 19:29N 38°54' E 001°27'0 0.5
2018-Mar-29 18:59N 38°54' E 001°27'714.9
2018-Mar-29 18:30N 38°48' E 001°23'1121.4
2018-Mar-29 17:58N 38°47' E 001°08'2 0.3
2018-Mar-29 11:55N 38°49' E 001°06'1019.6
2018-Mar-29 11:26N 38°48' E 001°18'714.1
2018-Mar-29 10:55N 38°50' E 001°27'4 4.7
2018-Mar-29 10:02N 38°54' E 001°27'0 0.6
2018-Mar-29 09:46N 38°54' E 001°27'3 9.5
2018-Mar-29 09:27N 38°55' E 001°31'4521.4
2018-Mar-29 07:20N 39°19' E 002°20'721.5
2018-Mar-29 07:00N 39°24' E 002°27'1121.2
2018-Mar-29 06:30N 39°31' E 002°37'2 5.0
2018-Mar-29 06:00N 39°33' E 002°38'0 0.0
2018-Mar-29 05:30N 39°33' E 002°38'0 0.0
2018-Mar-29 05:00N 39°33' E 002°38'0 0.0
2018-Mar-29 04:30N 39°33' E 002°38'0 0.0
2018-Mar-29 04:00N 39°33' E 002°38'0 0.0
2018-Mar-29 03:30N 39°33' E 002°38'0 0.0
2018-Mar-29 03:00N 39°33' E 002°38'0 0.0
2018-Mar-29 02:30N 39°33' E 002°38'0 0.0
2018-Mar-29 02:00N 39°33' E 002°38'0 0.0
2018-Mar-29 01:30N 39°33' E 002°38'0 0.0
2018-Mar-29 01:00N 39°33' E 002°38'0 0.0
2018-Mar-29 00:30N 39°33' E 002°38'0 0.0
2018-Mar-29 00:00N 39°33' E 002°38'0 0.0
2018-Mar-28 23:30N 39°33' E 002°38'5 9.8
2018-Mar-28 23:00N 39°29' E 002°35'1121.2
2018-Mar-28 22:30N 39°21' E 002°25'4122.1
2018-Mar-28 20:39N 38°59' E 001°41'321.8
2018-Mar-28 20:30N 38°58' E 001°37'917.6
2018-Mar-28 20:00N 38°54' E 001°27'0 0.6
2018-Mar-28 19:27N 38°54' E 001°27'2 2.9
2018-Mar-28 18:54N 38°53' E 001°27'716.8
2018-Mar-28 18:29N 38°47' E 001°21'5 0.7
2018-Mar-28 11:35N 38°48' E 001°15'221.7
2018-Mar-28 11:30N 38°48' E 001°18'815.9
2018-Mar-28 11:00N 38°52' E 001°27'2 4.9
2018-Mar-28 10:30N 38°54' E 001°27'0 0.0
2018-Mar-28 09:56N 38°54' E 001°27'1 2.0
2018-Mar-28 09:30N 38°54' E 001°28'1121.2
2018-Mar-28 09:00N 38°59' E 001°40'2421.5
2018-Mar-28 07:54N 39°13' E 002°05'1221.6
2018-Mar-28 07:20N 39°19' E 002°18'721.7
2018-Mar-28 06:59N 39°23' E 002°26'1021.3
2018-Mar-28 06:30N 39°30' E 002°36'3 6.1
2018-Mar-28 06:00N 39°33' E 002°38'0 0.0
2018-Mar-28 05:30N 39°33' E 002°38'0 0.0
2018-Mar-28 05:00N 39°33' E 002°38'0 0.0
2018-Mar-28 04:30N 39°33' E 002°38'0 0.0
2018-Mar-28 04:01N 39°33' E 002°38'0 0.0
2018-Mar-28 03:30N 39°33' E 002°38'0 0.0
2018-Mar-28 03:00N 39°33' E 002°38'0 0.0
2018-Mar-28 02:30N 39°33' E 002°38'0 0.0
2018-Mar-28 02:00N 39°33' E 002°38'0 0.0
2018-Mar-28 01:31N 39°33' E 002°38'0 0.0
2018-Mar-28 01:00N 39°33' E 002°38'0 0.0
2018-Mar-28 00:30N 39°33' E 002°38'0 0.0
2018-Mar-28 00:00N 39°33' E 002°38'0 0.1
2018-Mar-27 23:30N 39°33' E 002°38'713.6
2018-Mar-27 23:00N 39°27' E 002°34'1121.6
2018-Mar-27 22:30N 39°20' E 002°23'3922.1
2018-Mar-27 20:43N 38°59' E 001°40'522.0
2018-Mar-27 20:29N 38°57' E 001°34'611.8
2018-Mar-27 19:58N 38°54' E 001°27'0 0.0
2018-Mar-27 19:29N 38°54' E 001°27'611.7
2018-Mar-27 19:00N 38°49' E 001°26'12 1.6
2018-Mar-27 11:31N 38°49' E 001°10'121.3
2018-Mar-27 11:29N 38°49' E 001°11'1217.7
2018-Mar-27 10:48N 38°51' E 001°27'310.7
2018-Mar-27 10:30N 38°54' E 001°27'0 0.0
2018-Mar-27 09:54N 38°54' E 001°27'1 1.3
2018-Mar-27 09:30N 38°54' E 001°27'917.1
2018-Mar-27 09:00N 38°58' E 001°37'3721.1
2018-Mar-27 07:14N 39°18' E 002°17'521.5
2018-Mar-27 07:00N 39°21' E 002°23'1021.4
2018-Mar-27 06:30N 39°27' E 002°34'714.6
2018-Mar-27 06:01N 39°33' E 002°38'0 0.7
2018-Mar-27 05:30N 39°33' E 002°38'0 0.0
2018-Mar-27 05:00N 39°33' E 002°38'0 0.0
2018-Mar-27 04:31N 39°33' E 002°38'0 0.0
2018-Mar-27 04:00N 39°33' E 002°38'0 0.0
2018-Mar-27 03:30N 39°33' E 002°38'0 0.0
2018-Mar-27 03:00N 39°33' E 002°38'0 0.0
2018-Mar-27 02:30N 39°33' E 002°38'0 0.0
2018-Mar-27 02:01N 39°33' E 002°38'0 0.0
2018-Mar-27 01:30N 39°33' E 002°38'0 0.0
2018-Mar-27 01:00N 39°33' E 002°38'0 0.0
2018-Mar-27 00:31N 39°33' E 002°38'0 0.0
2018-Mar-27 00:00N 39°33' E 002°38'0 0.0
2018-Mar-26 23:30N 39°33' E 002°38'1 1.2
2018-Mar-26 23:00N 39°33' E 002°38'918.6
2018-Mar-26 22:30N 39°25' E 002°33'1122.2
2018-Mar-26 22:00N 39°19' E 002°20'3222.3
2018-Mar-26 20:34N 39°02' E 001°46'121.9
2018-Mar-26 20:30N 39°01' E 001°44'1121.3
2018-Mar-26 20:00N 38°56' E 001°32'4 8.2
2018-Mar-26 19:28N 38°54' E 001°27'0 0.2
2018-Mar-26 18:55N 38°54' E 001°27'612.9
2018-Mar-26 18:27N 38°48' E 001°25'11 1.6
2018-Mar-26 11:22N 38°49' E 001°11'821.6
2018-Mar-26 11:00N 38°48' E 001°21'714.0
2018-Mar-26 10:29N 38°54' E 001°27'0 0.6
2018-Mar-26 09:57N 38°54' E 001°27'1 1.0
2018-Mar-26 09:24N 38°54' E 001°27'818.5
2018-Mar-26 09:00N 38°57' E 001°36'4021.6
2018-Mar-26 07:08N 39°19' E 002°19'321.8
2018-Mar-26 06:59N 39°21' E 002°23'1021.4
2018-Mar-26 06:30N 39°27' E 002°34'714.6
2018-Mar-26 06:00N 39°33' E 002°38'0 0.2
2018-Mar-26 05:30N 39°33' E 002°38'0 0.0
2018-Mar-26 05:01N 39°33' E 002°38'0 0.0
2018-Mar-26 04:31N 39°33' E 002°38'0 0.0
2018-Mar-26 04:00N 39°33' E 002°38'0 0.0
2018-Mar-26 03:30N 39°33' E 002°38'0 0.0
2018-Mar-26 03:00N 39°33' E 002°38'0 0.0
2018-Mar-26 02:30N 39°33' E 002°38'0 0.0
2018-Mar-26 02:01N 39°33' E 002°38'0 0.0
2018-Mar-26 01:30N 39°33' E 002°38'3 6.8
2018-Mar-26 01:00N 39°30' E 002°36'1121.5
2018-Mar-26 00:31N 39°22' E 002°27'4021.7
2018-Mar-25 22:39N 39°00' E 001°43'322.0
2018-Mar-25 22:30N 38°59' E 001°40'1118.9
2018-Mar-25 21:55N 38°54' E 001°27'0 0.3
2018-Mar-25 21:30N 38°54' E 001°27'610.8
2018-Mar-25 20:57N 38°49' E 001°25'11 1.7
2018-Mar-25 14:07N 38°50' E 001°11'421.5
2018-Mar-25 13:55N 38°49' E 001°16'818.3
2018-Mar-25 13:30N 38°49' E 001°26'611.2
2018-Mar-25 13:00N 38°54' E 001°27'1 1.7
2018-Mar-25 12:23N 38°54' E 001°28'821.4
2018-Mar-25 12:00N 38°58' E 001°37'4120.8
2018-Mar-25 10:03N 39°23' E 002°19'121.4
2018-Mar-25 09:59N 39°23' E 002°20'1021.0
2018-Mar-25 09:30N 39°26' E 002°33'816.0
2018-Mar-25 09:00N 39°33' E 002°38'0 0.5
2018-Mar-25 08:30N 39°33' E 002°37'1 1.9
2018-Mar-25 08:00N 39°32' E 002°38'1019.2
2018-Mar-25 07:30N 39°26' E 002°30'5018.5
2018-Mar-25 04:47N 38°54' E 001°39'620.3
2018-Mar-25 04:30N 38°54' E 001°31'3 6.5
2018-Mar-25 03:58N 38°54' E 001°27'1 1.1
2018-Mar-25 03:27N 38°54' E 001°27'818.6
2018-Mar-25 03:00N 38°58' E 001°37'1217.7
2018-Mar-25 02:20N 39°10' E 001°34'  

Dump ship's entire track history